Deva — A8OK3 — position and weather

sailwx.info

Track history (hours):
 
Tides and Currents Weather Stations Pressure Air Temp Water Temp Dewpoint Dewpoint Depression Visibility Wind Speed Wind Dir Waves Ship Positions

Deva

Last reported at 2017-Jan-20 01:05 UTC. Time now 2017-Jan-24 09:13 UTC.
Position N 38°13' E 121°35'.

Length 259 m; draft 11.5 m.

Type: Ship (hazmat cat A). MMSI: 636013644.

Date/timePositionNaut miles runAvg speedWind from/ knotsBaromVisibWave heightAir tempDewpointWater temp
2017-Jan-20 01:05N 38°13' E 121°35'916.3
2017-Jan-20 00:33N 38°18' E 121°26'1616.3
2017-Jan-19 23:33N 38°26' E 121°08'1414.3
2017-Jan-19 22:34N 38°33' E 120°52'1111.1
2017-Jan-19 21:33N 38°34' E 120°38'9 0.2
2017-Jan-18 01:10N 38°41' E 120°31'812.8
2017-Jan-18 00:33N 38°39' E 120°41'1010.0
2017-Jan-17 23:33N 38°37' E 120°54'1414.0
2017-Jan-17 22:32N 38°30' E 121°10'1615.8
2017-Jan-17 21:31N 38°21' E 121°27'  
2017-Jan-15 04:33N 24°17' E 118°13'1313.0
2017-Jan-15 03:34N 24°26' E 118°03'4 3.7
2017-Jan-15 02:29N 24°27' E 117°59'0 0.0
2017-Jan-15 01:32N 24°27' E 117°59'0 0.0
2017-Jan-15 00:32N 24°27' E 117°59'0 0.0
2017-Jan-14 22:26N 24°27' E 117°59'0 0.0
2017-Jan-14 20:32N 24°27' E 117°59'0 0.0
2017-Jan-14 19:32N 24°27' E 117°59'0 0.0
2017-Jan-14 18:20N 24°27' E 117°59'0 0.0
2017-Jan-14 17:14N 24°27' E 117°59'0 0.0
2017-Jan-14 16:26N 24°27' E 117°59'0 0.0
2017-Jan-14 15:29N 24°27' E 117°59'0 0.0
2017-Jan-14 14:29N 24°27' E 117°59'0 0.0
2017-Jan-14 13:32N 24°27' E 117°59'0 0.0
2017-Jan-14 12:32N 24°27' E 117°59'1 1.1
2017-Jan-14 11:33N 24°27' E 117°60'10 9.6
2017-Jan-14 10:33N 24°22' E 118°09'8 7.7
2017-Jan-14 09:33N 24°16' E 118°14'  
Track history (hours):
 
Tides and Currents Weather Stations Pressure Air Temp Water Temp Dewpoint Dewpoint Depression Visibility Wind Speed Wind Dir Waves Ship Positions

Deva

Last reported at 2017-Jan-20 01:05 UTC. Time now 2017-Jan-24 09:13 UTC.
Position N 38°13' E 121°35'.

Length 259 m; draft 11.5 m.

Type: Ship (hazmat cat A). MMSI: 636013644.

Date/timePositionNaut miles runAvg speedWind from/ knotsBaromVisibWave heightAir tempDewpointWater temp
2017-Jan-20 01:05N 38°13' E 121°35'916.3
2017-Jan-20 00:33N 38°18' E 121°26'1616.3
2017-Jan-19 23:33N 38°26' E 121°08'1414.3
2017-Jan-19 22:34N 38°33' E 120°52'1111.1
2017-Jan-19 21:33N 38°34' E 120°38'9 0.2
2017-Jan-18 01:10N 38°41' E 120°31'812.8
2017-Jan-18 00:33N 38°39' E 120°41'1010.0
2017-Jan-17 23:33N 38°37' E 120°54'1414.0
2017-Jan-17 22:32N 38°30' E 121°10'1615.8
2017-Jan-17 21:31N 38°21' E 121°27'  
2017-Jan-15 04:33N 24°17' E 118°13'1313.0
2017-Jan-15 03:34N 24°26' E 118°03'4 3.7
2017-Jan-15 02:29N 24°27' E 117°59'0 0.0
2017-Jan-15 01:32N 24°27' E 117°59'0 0.0
2017-Jan-15 00:32N 24°27' E 117°59'0 0.0
2017-Jan-14 22:26N 24°27' E 117°59'0 0.0
2017-Jan-14 20:32N 24°27' E 117°59'0 0.0
2017-Jan-14 19:32N 24°27' E 117°59'0 0.0
2017-Jan-14 18:20N 24°27' E 117°59'0 0.0
2017-Jan-14 17:14N 24°27' E 117°59'0 0.0
2017-Jan-14 16:26N 24°27' E 117°59'0 0.0
2017-Jan-14 15:29N 24°27' E 117°59'0 0.0
2017-Jan-14 14:29N 24°27' E 117°59'0 0.0
2017-Jan-14 13:32N 24°27' E 117°59'0 0.0
2017-Jan-14 12:32N 24°27' E 117°59'1 1.1
2017-Jan-14 11:33N 24°27' E 117°60'10 9.6
2017-Jan-14 10:33N 24°22' E 118°09'8 7.7
2017-Jan-14 09:33N 24°16' E 118°14'  

Dump ship's entire track history